Dean Reinauer — WDG7107 — position and weather

sailwx.info

Track history (hours):
 
Tides and Currents Weather Stations Pressure Air Temp Water Temp Dewpoint Dewpoint Depression Visibility Wind Speed Wind Dir Waves Ship Positions

Dean Reinauer

Owner: REINAUER TRANSPORTATION CO.,LLC., STATEN ISLAND, NY. More information available from US FCC via Universal Licensing System and Coast Guard Vessel Documentation Center.

Last reported at 2018-May-20 02:20 UTC. Time now 2018-May-20 12:04 UTC.
Position N 40°36' W 074°12'.

Length 152 m; draft 6.3 m.

Type: . MMSI: 367563930.

Date/timePositionNaut miles runAvg speedWind from/ knotsBaromVisibWave heightAir tempDewpointWater temp
2018-May-20 02:20N 40°36' W 074°12'0 0.0
2018-May-20 01:53N 40°36' W 074°12'1 1.2
2018-May-20 01:19N 40°37' W 074°12'2 5.5
2018-May-20 00:58N 40°39' W 074°11'3 7.4
2018-May-20 00:30N 40°39' W 074°06'4 7.6
2018-May-20 00:00N 40°41' W 074°02'611.5
2018-May-19 23:30N 40°46' W 074°00'  
2018-May-15 14:31N 40°50' W 073°58'211.2
2018-May-15 14:19N 40°48' W 073°59'311.0
2018-May-15 14:00N 40°45' W 074°01'510.6
2018-May-15 13:30N 40°40' W 074°03'4 7.6
2018-May-15 13:00N 40°39' W 074°08'2 4.0
2018-May-15 12:29N 40°39' W 074°11'2 3.6
2018-May-15 12:00N 40°38' W 074°12'  
2018-May-13 03:18N 40°38' W 074°12'3 7.9
2018-May-13 02:59N 40°39' W 074°09'4 7.7
2018-May-13 02:31N 40°39' W 074°04'1 2.0
2018-May-13 01:58N 40°39' W 074°03'0 0.0
2018-May-13 01:28N 40°39' W 074°03'0 0.3
2018-May-13 00:58N 40°39' W 074°03'0 0.2
2018-May-13 00:28N 40°39' W 074°03'0 0.1
2018-May-12 23:58N 40°39' W 074°03'0 0.0
2018-May-12 23:28N 40°39' W 074°03'0 0.0
2018-May-12 22:58N 40°39' W 074°03'0 0.0
2018-May-12 22:28N 40°39' W 074°03'0 0.1
2018-May-12 21:58N 40°39' W 074°03'0 0.1
2018-May-12 21:28N 40°39' W 074°03'0 0.2
2018-May-12 20:58N 40°39' W 074°03'0 0.0
2018-May-12 20:28N 40°39' W 074°03'0 0.0
2018-May-12 19:58N 40°39' W 074°03'0 0.0
2018-May-12 19:28N 40°39' W 074°03'1 2.9
2018-May-12 19:00N 40°41' W 074°02'611.6
2018-May-12 18:30N 40°46' W 074°00'2 0.1
2018-May-11 12:48N 40°48' W 073°59'3 9.0
2018-May-11 12:31N 40°46' W 074°00'4 8.9
2018-May-11 12:01N 40°42' W 074°02'4 7.4
2018-May-11 11:29N 40°39' W 074°06'3 5.8
2018-May-11 10:59N 40°39' W 074°09'2 0.2
2018-May-10 18:53N 40°37' W 074°12'4 8.3
2018-May-10 18:28N 40°38' W 074°08'0 0.1
2018-May-10 17:53N 40°38' W 074°08'0 0.0
2018-May-10 17:09N 40°38' W 074°08'0 0.0
2018-May-10 16:56N 40°38' W 074°08'7 2.2
2018-May-10 13:43N 40°33' W 074°14'0 0.1
2018-May-10 13:30N 40°33' W 074°14'2 3.7
2018-May-10 12:59N 40°35' W 074°13'4 8.4
2018-May-10 12:30N 40°39' W 074°11'4 7.5
2018-May-10 12:00N 40°39' W 074°06'3 6.3
2018-May-10 11:30N 40°40' W 074°03'5 9.6
2018-May-10 11:00N 40°43' W 073°58'4 8.0
2018-May-10 10:29N 40°47' W 073°55'2 4.7
2018-May-10 10:00N 40°48' W 073°52'4 8.1
2018-May-10 09:30N 40°48' W 073°47'5 9.7
2018-May-10 09:00N 40°53' W 073°44'1610.1
2018-May-10 07:25N 40°60' W 073°25'5 9.9
2018-May-10 06:57N 41°01' W 073°19'6 9.9
2018-May-10 06:21N 41°01' W 073°11'3 9.8
2018-May-10 06:00N 41°02' W 073°07'10 9.5
2018-May-10 04:58N 41°04' W 072°54'4 9.5
2018-May-10 04:30N 41°05' W 072°48'5 9.3
2018-May-10 04:00N 41°06' W 072°42'5 9.1
2018-May-10 03:29N 41°07' W 072°36'4 8.7
2018-May-10 02:59N 41°08' W 072°30'4 8.2
2018-May-10 02:30N 41°09' W 072°25'  
Track history (hours):
 
Tides and Currents Weather Stations Pressure Air Temp Water Temp Dewpoint Dewpoint Depression Visibility Wind Speed Wind Dir Waves Ship Positions

Dean Reinauer

Owner: REINAUER TRANSPORTATION CO.,LLC., STATEN ISLAND, NY. More information available from US FCC via Universal Licensing System and Coast Guard Vessel Documentation Center.

Last reported at 2018-May-20 02:20 UTC. Time now 2018-May-20 12:04 UTC.
Position N 40°36' W 074°12'.

Length 152 m; draft 6.3 m.

Type: . MMSI: 367563930.

Date/timePositionNaut miles runAvg speedWind from/ knotsBaromVisibWave heightAir tempDewpointWater temp
2018-May-20 02:20N 40°36' W 074°12'0 0.0
2018-May-20 01:53N 40°36' W 074°12'1 1.2
2018-May-20 01:19N 40°37' W 074°12'2 5.5
2018-May-20 00:58N 40°39' W 074°11'3 7.4
2018-May-20 00:30N 40°39' W 074°06'4 7.6
2018-May-20 00:00N 40°41' W 074°02'611.5
2018-May-19 23:30N 40°46' W 074°00'  
2018-May-15 14:31N 40°50' W 073°58'211.2
2018-May-15 14:19N 40°48' W 073°59'311.0
2018-May-15 14:00N 40°45' W 074°01'510.6
2018-May-15 13:30N 40°40' W 074°03'4 7.6
2018-May-15 13:00N 40°39' W 074°08'2 4.0
2018-May-15 12:29N 40°39' W 074°11'2 3.6
2018-May-15 12:00N 40°38' W 074°12'  
2018-May-13 03:18N 40°38' W 074°12'3 7.9
2018-May-13 02:59N 40°39' W 074°09'4 7.7
2018-May-13 02:31N 40°39' W 074°04'1 2.0
2018-May-13 01:58N 40°39' W 074°03'0 0.0
2018-May-13 01:28N 40°39' W 074°03'0 0.3
2018-May-13 00:58N 40°39' W 074°03'0 0.2
2018-May-13 00:28N 40°39' W 074°03'0 0.1
2018-May-12 23:58N 40°39' W 074°03'0 0.0
2018-May-12 23:28N 40°39' W 074°03'0 0.0
2018-May-12 22:58N 40°39' W 074°03'0 0.0
2018-May-12 22:28N 40°39' W 074°03'0 0.1
2018-May-12 21:58N 40°39' W 074°03'0 0.1
2018-May-12 21:28N 40°39' W 074°03'0 0.2
2018-May-12 20:58N 40°39' W 074°03'0 0.0
2018-May-12 20:28N 40°39' W 074°03'0 0.0
2018-May-12 19:58N 40°39' W 074°03'0 0.0
2018-May-12 19:28N 40°39' W 074°03'1 2.9
2018-May-12 19:00N 40°41' W 074°02'611.6
2018-May-12 18:30N 40°46' W 074°00'2 0.1
2018-May-11 12:48N 40°48' W 073°59'3 9.0
2018-May-11 12:31N 40°46' W 074°00'4 8.9
2018-May-11 12:01N 40°42' W 074°02'4 7.4
2018-May-11 11:29N 40°39' W 074°06'3 5.8
2018-May-11 10:59N 40°39' W 074°09'2 0.2
2018-May-10 18:53N 40°37' W 074°12'4 8.3
2018-May-10 18:28N 40°38' W 074°08'0 0.1
2018-May-10 17:53N 40°38' W 074°08'0 0.0
2018-May-10 17:09N 40°38' W 074°08'0 0.0
2018-May-10 16:56N 40°38' W 074°08'7 2.2
2018-May-10 13:43N 40°33' W 074°14'0 0.1
2018-May-10 13:30N 40°33' W 074°14'2 3.7
2018-May-10 12:59N 40°35' W 074°13'4 8.4
2018-May-10 12:30N 40°39' W 074°11'4 7.5
2018-May-10 12:00N 40°39' W 074°06'3 6.3
2018-May-10 11:30N 40°40' W 074°03'5 9.6
2018-May-10 11:00N 40°43' W 073°58'4 8.0
2018-May-10 10:29N 40°47' W 073°55'2 4.7
2018-May-10 10:00N 40°48' W 073°52'4 8.1
2018-May-10 09:30N 40°48' W 073°47'5 9.7
2018-May-10 09:00N 40°53' W 073°44'1610.1
2018-May-10 07:25N 40°60' W 073°25'5 9.9
2018-May-10 06:57N 41°01' W 073°19'6 9.9
2018-May-10 06:21N 41°01' W 073°11'3 9.8
2018-May-10 06:00N 41°02' W 073°07'10 9.5
2018-May-10 04:58N 41°04' W 072°54'4 9.5
2018-May-10 04:30N 41°05' W 072°48'5 9.3
2018-May-10 04:00N 41°06' W 072°42'5 9.1
2018-May-10 03:29N 41°07' W 072°36'4 8.7
2018-May-10 02:59N 41°08' W 072°30'4 8.2
2018-May-10 02:30N 41°09' W 072°25'  

Dump ship's entire track history